createdAt,value
2017-01-31T00:00:38.762Z,1029.7
2017-01-31T00:01:38.777Z,1029.66
2017-01-31T00:02:38.732Z,1029.68
2017-01-31T00:03:38.716Z,1029.68
2017-01-31T00:04:38.702Z,1029.64
2017-01-31T00:05:38.687Z,1029.66
2017-01-31T00:06:38.672Z,1029.68
2017-01-31T00:07:38.657Z,1029.69
2017-01-31T00:08:38.641Z,1029.67
2017-01-31T00:09:38.627Z,1029.66
2017-01-31T00:10:38.611Z,1029.63
2017-01-31T00:11:38.598Z,1029.69
2017-01-31T00:12:38.581Z,1029.64
2017-01-31T00:13:38.566Z,1029.63
2017-01-31T00:14:38.551Z,1029.67
2017-01-31T00:15:38.537Z,1029.6
2017-01-31T00:16:38.523Z,1029.6
2017-01-31T00:17:38.508Z,1029.59
2017-01-31T00:18:38.492Z,1029.59
2017-01-31T00:19:38.476Z,1029.56
2017-01-31T00:20:38.464Z,1029.55
2017-01-31T00:21:38.446Z,1029.49
2017-01-31T00:22:38.432Z,1029.46
2017-01-31T00:23:38.417Z,1029.49
2017-01-31T00:24:38.402Z,1029.44
2017-01-31T00:25:38.386Z,1029.49
2017-01-31T00:26:38.374Z,1029.46
2017-01-31T00:27:38.358Z,1029.48
2017-01-31T00:28:38.342Z,1029.43
2017-01-31T00:29:38.328Z,1029.46
2017-01-31T00:30:38.313Z,1029.43
2017-01-31T00:31:38.324Z,1029.43
2017-01-31T00:32:38.282Z,1029.42
2017-01-31T00:33:38.267Z,1029.33
2017-01-31T00:34:38.253Z,1029.3
2017-01-31T00:35:38.237Z,1029.29
2017-01-31T00:36:38.222Z,1029.28
2017-01-31T00:37:38.208Z,1029.28
2017-01-31T00:38:38.193Z,1029.3
2017-01-31T00:39:38.178Z,1029.35
2017-01-31T00:40:38.162Z,1029.37
2017-01-31T00:41:38.148Z,1029.35
2017-01-31T00:42:38.134Z,1029.36
2017-01-31T00:43:38.120Z,1029.35
2017-01-31T00:44:38.104Z,1029.35
2017-01-31T00:45:38.090Z,1029.3
2017-01-31T00:46:38.075Z,1029.29
2017-01-31T00:47:38.059Z,1029.28
2017-01-31T00:48:38.044Z,1029.3
2017-01-31T00:49:38.030Z,1029.31
2017-01-31T00:50:38.015Z,1029.28
2017-01-31T00:51:38.005Z,1029.22
2017-01-31T00:52:37.984Z,1029.2
2017-01-31T00:53:37.970Z,1029.19
2017-01-31T00:54:37.955Z,1029.2
2017-01-31T00:55:37.940Z,1029.19
2017-01-31T00:56:37.925Z,1029.19
2017-01-31T00:57:37.911Z,1029.19
2017-01-31T00:58:37.895Z,1029.21
2017-01-31T00:59:37.881Z,1029.28
2017-01-31T01:00:37.867Z,1029.27
2017-01-31T01:01:37.853Z,1029.34
2017-01-31T01:02:37.836Z,1029.29
2017-01-31T01:03:37.821Z,1029.29
2017-01-31T01:04:37.806Z,1029.29
2017-01-31T01:05:37.791Z,1029.25
2017-01-31T01:06:37.775Z,1029.3
2017-01-31T01:07:37.762Z,1029.3
2017-01-31T01:08:37.748Z,1029.34
2017-01-31T01:09:37.731Z,1029.37
2017-01-31T01:10:37.719Z,1029.41
2017-01-31T01:11:37.702Z,1029.39
2017-01-31T01:12:37.688Z,1029.4
2017-01-31T01:13:37.672Z,1029.42
2017-01-31T01:14:37.657Z,1029.4
2017-01-31T01:15:37.642Z,1029.45
2017-01-31T01:16:37.627Z,1029.42
2017-01-31T01:17:37.612Z,1029.47
2017-01-31T01:18:37.598Z,1029.39
2017-01-31T01:19:37.583Z,1029.37
2017-01-31T01:20:37.567Z,1029.43
2017-01-31T01:21:37.553Z,1029.41
2017-01-31T01:22:37.538Z,1029.45
2017-01-31T01:23:37.527Z,1029.4
2017-01-31T01:24:37.509Z,1029.4
2017-01-31T01:25:37.494Z,1029.35
2017-01-31T01:26:37.480Z,1029.37
2017-01-31T01:27:37.464Z,1029.33
2017-01-31T01:28:37.449Z,1029.33
2017-01-31T01:29:37.434Z,1029.34
2017-01-31T01:30:37.421Z,1029.36
2017-01-31T01:31:37.404Z,1029.34
2017-01-31T01:32:37.390Z,1029.34
2017-01-31T01:33:37.375Z,1029.39
2017-01-31T01:34:37.360Z,1029.42
2017-01-31T01:35:37.346Z,1029.37
2017-01-31T01:36:37.333Z,1029.38
2017-01-31T01:37:37.316Z,1029.36
2017-01-31T01:38:37.311Z,1029.34
2017-01-31T01:39:37.287Z,1029.31
2017-01-31T01:40:37.272Z,1029.28
2017-01-31T01:41:37.258Z,1029.23
2017-01-31T01:42:37.243Z,1029.23
2017-01-31T01:43:37.228Z,1029.22
2017-01-31T01:44:37.213Z,1029.2
2017-01-31T01:45:37.198Z,1029.17
2017-01-31T01:46:37.183Z,1029.16
2017-01-31T01:47:37.169Z,1029.12
2017-01-31T01:48:37.154Z,1029.1
2017-01-31T01:49:37.138Z,1029.12
2017-01-31T01:50:37.124Z,1029.16
2017-01-31T01:51:37.110Z,1029.11
2017-01-31T01:52:37.095Z,1029.14
2017-01-31T01:53:37.080Z,1029.12
2017-01-31T01:54:37.066Z,1029.16
2017-01-31T01:55:37.052Z,1029.14
2017-01-31T01:56:37.036Z,1029.15
2017-01-31T01:57:37.021Z,1029.16
2017-01-31T01:58:37.007Z,1029.15
2017-01-31T01:59:36.993Z,1029.21
2017-01-31T02:00:36.977Z,1029.23
2017-01-31T02:01:36.962Z,1029.23
2017-01-31T02:02:36.948Z,1029.23
2017-01-31T02:03:36.933Z,1029.24
2017-01-31T02:04:36.918Z,1029.22
2017-01-31T02:05:36.904Z,1029.25
2017-01-31T02:06:36.889Z,1029.28
2017-01-31T02:07:36.874Z,1029.28
2017-01-31T02:08:36.859Z,1029.33
2017-01-31T02:09:36.845Z,1029.32
2017-01-31T02:10:36.830Z,1029.33
2017-01-31T02:11:36.821Z,1029.37
2017-01-31T02:12:36.801Z,1029.38
2017-01-31T02:13:36.789Z,1029.4
2017-01-31T02:14:36.772Z,1029.41
2017-01-31T02:15:36.757Z,1029.43
2017-01-31T02:16:36.743Z,1029.49
2017-01-31T02:17:36.728Z,1029.47
2017-01-31T02:18:36.712Z,1029.5
2017-01-31T02:19:36.698Z,1029.53
2017-01-31T02:20:36.684Z,1029.45
2017-01-31T02:21:36.669Z,1029.5
2017-01-31T02:22:36.655Z,1029.51
2017-01-31T02:23:36.638Z,1029.54
2017-01-31T02:24:36.625Z,1029.48
2017-01-31T02:25:36.612Z,1029.45
2017-01-31T02:26:36.595Z,1029.46
2017-01-31T02:27:36.580Z,1029.43
2017-01-31T02:28:36.565Z,1029.52
2017-01-31T02:29:36.550Z,1029.46
2017-01-31T02:30:36.536Z,1029.53
2017-01-31T02:31:36.521Z,1029.55
2017-01-31T02:32:36.506Z,1029.55
2017-01-31T02:33:36.490Z,1029.6
2017-01-31T02:34:36.477Z,1029.62
2017-01-31T02:35:36.463Z,1029.62
2017-01-31T02:36:36.447Z,1029.64
2017-01-31T02:37:36.464Z,1029.69
2017-01-31T02:38:36.416Z,1029.74
2017-01-31T02:39:36.405Z,1029.77
2017-01-31T02:40:36.387Z,1029.78
2017-01-31T02:41:36.372Z,1029.82
2017-01-31T02:42:36.359Z,1029.79
2017-01-31T02:43:36.343Z,1029.84
2017-01-31T02:44:36.328Z,1029.82
2017-01-31T02:45:36.313Z,1029.83
2017-01-31T02:46:36.299Z,1029.84
2017-01-31T02:47:36.283Z,1029.89
2017-01-31T02:48:36.269Z,1029.9
2017-01-31T02:49:36.253Z,1029.94
2017-01-31T02:50:36.245Z,1029.96
2017-01-31T02:51:36.224Z,1029.94
2017-01-31T02:52:36.210Z,1029.94
2017-01-31T02:53:36.194Z,1029.95
2017-01-31T02:54:36.179Z,1029.9
2017-01-31T02:55:36.163Z,1029.83
2017-01-31T02:56:36.148Z,1029.84
2017-01-31T02:57:36.134Z,1029.84
2017-01-31T02:58:36.119Z,1029.82
2017-01-31T02:59:36.104Z,1029.85
2017-01-31T03:00:36.089Z,1029.84
2017-01-31T03:01:36.074Z,1029.81
2017-01-31T03:02:36.062Z,1029.8
2017-01-31T03:03:36.043Z,1029.77
2017-01-31T03:04:36.030Z,1029.79
2017-01-31T03:05:36.014Z,1029.74
2017-01-31T03:06:35.999Z,1029.78
2017-01-31T03:07:35.986Z,1029.82
2017-01-31T03:08:35.969Z,1029.84
2017-01-31T03:09:35.955Z,1029.88
2017-01-31T03:10:35.940Z,1029.87
2017-01-31T03:11:35.925Z,1029.85
2017-01-31T03:12:35.911Z,1029.87
2017-01-31T03:13:35.894Z,1029.83
2017-01-31T03:14:35.879Z,1029.85
2017-01-31T03:15:35.865Z,1029.87
2017-01-31T03:16:35.851Z,1029.87
2017-01-31T03:17:35.836Z,1029.92
2017-01-31T03:18:35.820Z,1029.94
2017-01-31T03:19:35.807Z,1029.98
2017-01-31T03:20:35.790Z,1029.95
2017-01-31T03:21:35.776Z,1030
2017-01-31T03:22:35.761Z,1029.96
2017-01-31T03:23:35.746Z,1029.95
2017-01-31T03:24:35.731Z,1029.95
2017-01-31T03:25:35.742Z,1029.96
2017-01-31T03:26:35.702Z,1029.95
2017-01-31T03:27:35.686Z,1029.96
2017-01-31T03:28:35.674Z,1029.98
2017-01-31T03:29:35.660Z,1029.97
2017-01-31T03:30:35.643Z,1029.95
2017-01-31T03:31:35.627Z,1029.93
2017-01-31T03:32:35.612Z,1029.93
2017-01-31T03:33:35.598Z,1029.84
2017-01-31T03:34:35.584Z,1029.9
2017-01-31T03:35:35.568Z,1029.89
2017-01-31T03:36:35.553Z,1029.93
2017-01-31T03:37:35.541Z,1029.94
2017-01-31T03:38:35.524Z,1029.94
2017-01-31T03:39:35.508Z,1029.95
2017-01-31T03:40:35.495Z,1029.94
2017-01-31T03:41:35.479Z,1029.96
2017-01-31T03:42:35.465Z,1030
2017-01-31T03:43:35.449Z,1029.96
2017-01-31T03:44:35.435Z,1029.99
2017-01-31T03:45:35.420Z,1030
2017-01-31T03:46:35.404Z,1029.99
2017-01-31T03:47:35.397Z,1030.01
2017-01-31T03:48:35.376Z,1030.06
2017-01-31T03:49:35.361Z,1030.04
2017-01-31T03:50:35.346Z,1030.1
2017-01-31T03:51:35.331Z,1030.12
2017-01-31T03:52:35.317Z,1030.13
2017-01-31T03:53:35.305Z,1030.12
2017-01-31T03:54:35.287Z,1030.16
2017-01-31T03:55:35.272Z,1030.18
2017-01-31T03:56:35.258Z,1030.17
2017-01-31T03:57:35.245Z,1030.17
2017-01-31T03:58:35.229Z,1030.15
2017-01-31T03:59:35.237Z,1030.1
2017-01-31T04:00:35.199Z,1030.09
2017-01-31T04:01:35.183Z,1030.12
2017-01-31T04:02:35.169Z,1030.16
2017-01-31T04:03:35.154Z,1030.12
2017-01-31T04:04:35.138Z,1030.11
2017-01-31T04:05:35.123Z,1030.13
2017-01-31T04:06:35.111Z,1030.12
2017-01-31T04:07:35.122Z,1030.12
2017-01-31T04:08:35.079Z,1030.13
2017-01-31T04:09:35.066Z,1030.15
2017-01-31T04:10:35.052Z,1030.13
2017-01-31T04:11:35.035Z,1030.1
2017-01-31T04:12:35.021Z,1030.09
2017-01-31T04:13:35.005Z,1030.14
2017-01-31T04:14:34.992Z,1030.05
2017-01-31T04:15:34.975Z,1030.11
2017-01-31T04:16:34.961Z,1030.09
2017-01-31T04:17:34.947Z,1030.09
2017-01-31T04:18:34.933Z,1030.1
2017-01-31T04:19:34.916Z,1030.15
2017-01-31T04:20:34.902Z,1030.17
2017-01-31T04:21:34.887Z,1030.16
2017-01-31T04:22:34.874Z,1030.18
2017-01-31T04:23:34.857Z,1030.18
2017-01-31T04:24:34.842Z,1030.24
2017-01-31T04:25:34.828Z,1030.24
2017-01-31T04:26:34.812Z,1030.2
2017-01-31T04:27:34.797Z,1030.26
2017-01-31T04:28:34.783Z,1030.28
2017-01-31T04:29:34.769Z,1030.28
2017-01-31T04:30:34.753Z,1030.31
2017-01-31T04:31:34.738Z,1030.37
2017-01-31T04:32:34.724Z,1030.34
2017-01-31T04:33:34.710Z,1030.38
2017-01-31T04:34:34.694Z,1030.39
2017-01-31T04:35:34.682Z,1030.39
2017-01-31T04:36:34.670Z,1030.35
2017-01-31T04:37:34.649Z,1030.32
2017-01-31T04:38:34.633Z,1030.34
2017-01-31T04:39:34.620Z,1030.32
2017-01-31T04:40:34.604Z,1030.33
2017-01-31T04:41:34.589Z,1030.36
2017-01-31T04:42:34.578Z,1030.35
2017-01-31T04:43:34.560Z,1030.34
2017-01-31T04:44:34.545Z,1030.4
2017-01-31T04:45:34.532Z,1030.38
2017-01-31T04:46:34.517Z,1030.43
2017-01-31T04:47:34.506Z,1030.42
2017-01-31T04:48:34.486Z,1030.49
2017-01-31T04:49:34.471Z,1030.47
2017-01-31T04:50:34.458Z,1030.5
2017-01-31T04:51:34.443Z,1030.57
2017-01-31T04:52:34.427Z,1030.61
2017-01-31T04:53:34.412Z,1030.64
2017-01-31T04:54:34.403Z,1030.69
2017-01-31T04:55:34.382Z,1030.7
2017-01-31T04:56:34.368Z,1030.69
2017-01-31T04:57:34.354Z,1030.69
2017-01-31T04:58:34.338Z,1030.68
2017-01-31T04:59:34.355Z,1030.67
2017-01-31T05:00:34.308Z,1030.63
2017-01-31T05:01:34.293Z,1030.67
2017-01-31T05:02:34.278Z,1030.63
2017-01-31T05:03:34.264Z,1030.65
2017-01-31T05:04:34.248Z,1030.65
2017-01-31T05:05:34.235Z,1030.65
2017-01-31T05:06:34.223Z,1030.67
2017-01-31T05:07:34.203Z,1030.71
2017-01-31T05:08:34.189Z,1030.71
2017-01-31T05:09:34.174Z,1030.75
2017-01-31T05:10:34.159Z,1030.74
2017-01-31T05:11:34.144Z,1030.72
2017-01-31T05:12:34.129Z,1030.71
2017-01-31T05:13:34.115Z,1030.72
2017-01-31T05:14:34.099Z,1030.72
2017-01-31T05:15:34.085Z,1030.72
2017-01-31T05:16:34.069Z,1030.74
2017-01-31T05:17:34.054Z,1030.68
2017-01-31T05:18:34.040Z,1030.72
2017-01-31T05:19:34.025Z,1030.75
2017-01-31T05:20:34.010Z,1030.74
2017-01-31T05:21:33.995Z,1030.75
2017-01-31T05:22:33.984Z,1030.71
2017-01-31T05:23:33.966Z,1030.71
2017-01-31T05:24:33.951Z,1030.69
2017-01-31T05:25:33.936Z,1030.72
2017-01-31T05:26:33.921Z,1030.66
2017-01-31T05:27:33.907Z,1030.63
2017-01-31T05:28:33.889Z,1030.6
2017-01-31T05:29:33.877Z,1030.6
2017-01-31T05:30:33.861Z,1030.65
2017-01-31T05:31:33.846Z,1030.64
2017-01-31T05:32:33.831Z,1030.59
2017-01-31T05:33:33.816Z,1030.65
2017-01-31T05:34:33.801Z,1030.64
2017-01-31T05:35:33.787Z,1030.67
2017-01-31T05:36:33.772Z,1030.68
2017-01-31T05:37:33.757Z,1030.67
2017-01-31T05:38:33.743Z,1030.69
2017-01-31T05:39:33.727Z,1030.68
2017-01-31T05:40:33.712Z,1030.65
2017-01-31T05:41:33.697Z,1030.7
2017-01-31T05:42:33.683Z,1030.69
2017-01-31T05:43:33.667Z,1030.69
2017-01-31T05:44:33.653Z,1030.7
2017-01-31T05:45:33.638Z,1030.67
2017-01-31T05:46:33.624Z,1030.65
2017-01-31T05:47:33.607Z,1030.63
2017-01-31T05:48:33.593Z,1030.66
2017-01-31T05:49:33.579Z,1030.68
2017-01-31T05:50:33.563Z,1030.61
2017-01-31T05:51:33.548Z,1030.66
2017-01-31T05:52:33.533Z,1030.72
2017-01-31T05:53:33.519Z,1030.67
2017-01-31T05:54:33.504Z,1030.8
2017-01-31T05:55:33.493Z,1030.82
2017-01-31T05:56:33.474Z,1030.86
2017-01-31T05:57:33.459Z,1030.91
2017-01-31T05:58:33.444Z,1030.93
2017-01-31T05:59:33.437Z,1030.9
2017-01-31T06:00:33.414Z,1030.89
2017-01-31T06:01:33.399Z,1030.9
2017-01-31T06:02:33.384Z,1030.94
2017-01-31T06:03:33.369Z,1030.93
2017-01-31T06:04:33.355Z,1030.94
2017-01-31T06:05:33.339Z,1030.98
2017-01-31T06:06:33.325Z,1031
2017-01-31T06:07:33.309Z,1031.02
2017-01-31T06:08:33.295Z,1031.04
2017-01-31T06:09:33.280Z,1031.03
2017-01-31T06:10:33.265Z,1031.13
2017-01-31T06:11:33.251Z,1031.05
2017-01-31T06:12:33.235Z,1031.15
2017-01-31T06:13:33.220Z,1031.13
2017-01-31T06:14:33.206Z,1031.18
2017-01-31T06:15:33.191Z,1031.18
2017-01-31T06:16:33.175Z,1031.14
2017-01-31T06:17:33.161Z,1031.18
2017-01-31T06:18:33.146Z,1031.15
2017-01-31T06:19:33.132Z,1031.17
2017-01-31T06:20:33.117Z,1031.17
2017-01-31T06:21:33.101Z,1031.1
2017-01-31T06:22:33.088Z,1031.1
2017-01-31T06:23:33.071Z,1031.12
2017-01-31T06:24:33.058Z,1031.18
2017-01-31T06:25:33.043Z,1031.17
2017-01-31T06:26:33.028Z,1031.18
2017-01-31T06:27:33.013Z,1031.17
2017-01-31T06:28:32.998Z,1031.17
2017-01-31T06:29:32.983Z,1031.22
2017-01-31T06:30:32.967Z,1031.22
2017-01-31T06:31:32.953Z,1031.27
2017-01-31T06:32:32.939Z,1031.25
2017-01-31T06:33:32.925Z,1031.29
2017-01-31T06:34:32.913Z,1031.31
2017-01-31T06:35:32.897Z,1031.3
2017-01-31T06:36:32.880Z,1031.32
2017-01-31T06:37:32.866Z,1031.36
2017-01-31T06:38:32.851Z,1031.34
2017-01-31T06:39:32.836Z,1031.36
2017-01-31T06:40:32.821Z,1031.37
2017-01-31T06:41:32.805Z,1031.32
2017-01-31T06:42:32.792Z,1031.3
2017-01-31T06:43:32.777Z,1031.27
2017-01-31T06:44:32.763Z,1031.27
2017-01-31T06:45:32.748Z,1031.28
2017-01-31T06:46:32.734Z,1031.29
2017-01-31T06:47:32.718Z,1031.3
2017-01-31T06:48:32.704Z,1031.33
2017-01-31T06:49:32.689Z,1031.33
2017-01-31T06:50:32.674Z,1031.32
2017-01-31T06:51:32.659Z,1031.34
2017-01-31T06:52:32.645Z,1031.36
2017-01-31T06:53:32.630Z,1031.35
2017-01-31T06:54:32.616Z,1031.37
2017-01-31T06:55:32.603Z,1031.33
2017-01-31T06:56:32.585Z,1031.38
2017-01-31T06:57:32.574Z,1031.42
2017-01-31T06:58:32.556Z,1031.4
2017-01-31T06:59:32.542Z,1031.39
2017-01-31T07:00:32.527Z,1031.43
2017-01-31T07:01:32.539Z,1031.39
2017-01-31T07:02:32.533Z,1031.37
2017-01-31T07:03:32.482Z,1031.39
2017-01-31T07:04:32.469Z,1031.35
2017-01-31T07:05:32.455Z,1031.33
2017-01-31T07:06:32.440Z,1031.36
2017-01-31T07:07:32.429Z,1031.32
2017-01-31T07:08:32.414Z,1031.36
2017-01-31T07:09:32.397Z,1031.38
2017-01-31T07:10:32.382Z,1031.4
2017-01-31T07:11:32.367Z,1031.41
2017-01-31T07:12:32.353Z,1031.41
2017-01-31T07:13:32.339Z,1031.43
2017-01-31T07:14:32.323Z,1031.38
2017-01-31T07:15:32.309Z,1031.39
2017-01-31T07:16:32.295Z,1031.45
2017-01-31T07:17:32.279Z,1031.46
2017-01-31T07:18:32.265Z,1031.47
2017-01-31T07:19:32.251Z,1031.53
2017-01-31T07:20:32.237Z,1031.54
2017-01-31T07:21:32.223Z,1031.56
2017-01-31T07:22:32.206Z,1031.55
2017-01-31T07:23:32.193Z,1031.56
2017-01-31T07:24:32.179Z,1031.58
2017-01-31T07:25:32.164Z,1031.57
2017-01-31T07:26:32.150Z,1031.54
2017-01-31T07:27:32.136Z,1031.52
2017-01-31T07:28:32.122Z,1031.53
2017-01-31T07:29:32.107Z,1031.51
2017-01-31T07:30:32.092Z,1031.53
2017-01-31T07:31:32.078Z,1031.55
2017-01-31T07:32:32.064Z,1031.58
2017-01-31T07:33:32.049Z,1031.57
2017-01-31T07:34:32.044Z,1031.54
2017-01-31T07:35:32.021Z,1031.46
2017-01-31T07:36:32.005Z,1031.44
2017-01-31T07:37:31.991Z,1031.44
2017-01-31T07:38:31.976Z,1031.43
2017-01-31T07:39:31.965Z,1031.44
2017-01-31T07:40:31.947Z,1031.46
2017-01-31T07:41:31.933Z,1031.49
2017-01-31T07:42:31.919Z,1031.48
2017-01-31T07:43:31.906Z,1031.45
2017-01-31T07:44:31.891Z,1031.46
2017-01-31T07:45:31.876Z,1031.49
2017-01-31T07:46:31.868Z,1031.57
2017-01-31T07:47:31.847Z,1031.57
2017-01-31T07:48:31.832Z,1031.61
2017-01-31T07:49:31.819Z,1031.64
2017-01-31T07:50:31.804Z,1031.61
2017-01-31T07:51:31.790Z,1031.62
2017-01-31T07:52:31.776Z,1031.52
2017-01-31T07:53:31.762Z,1031.53
2017-01-31T07:54:31.748Z,1031.52
2017-01-31T07:55:31.735Z,1031.56
2017-01-31T07:56:31.720Z,1031.61
2017-01-31T07:57:31.707Z,1031.64
2017-01-31T07:58:31.694Z,1031.67
2017-01-31T07:59:31.677Z,1031.64
2017-01-31T08:00:31.664Z,1031.64
2017-01-31T08:01:31.650Z,1031.58
2017-01-31T08:02:31.663Z,1031.59
2017-01-31T08:03:31.620Z,1031.59
2017-01-31T08:04:31.607Z,1031.6
2017-01-31T08:05:31.591Z,1031.6
2017-01-31T08:06:31.578Z,1031.6
2017-01-31T08:07:31.565Z,1031.56
2017-01-31T08:08:31.550Z,1031.58
2017-01-31T08:09:31.535Z,1031.57
2017-01-31T08:10:31.521Z,1031.54
2017-01-31T08:11:31.508Z,1031.54
2017-01-31T08:12:31.494Z,1031.51
2017-01-31T08:13:31.480Z,1031.54
2017-01-31T08:14:31.466Z,1031.52
2017-01-31T08:15:31.453Z,1031.5
2017-01-31T08:16:31.437Z,1031.51
2017-01-31T08:17:31.424Z,1031.49
2017-01-31T08:18:31.409Z,1031.52
2017-01-31T08:19:31.399Z,1031.53
2017-01-31T08:20:31.381Z,1031.56
2017-01-31T08:21:31.368Z,1031.6
2017-01-31T08:22:31.353Z,1031.64
2017-01-31T08:23:31.341Z,1031.63
2017-01-31T08:24:31.326Z,1031.62
2017-01-31T08:25:31.312Z,1031.59
2017-01-31T08:26:31.298Z,1031.6
2017-01-31T08:27:31.285Z,1031.6
2017-01-31T08:28:31.277Z,1031.63
2017-01-31T08:29:31.256Z,1031.59
2017-01-31T08:30:31.243Z,1031.6
2017-01-31T08:31:31.229Z,1031.56
2017-01-31T08:32:31.214Z,1031.55
2017-01-31T08:33:31.201Z,1031.55
2017-01-31T08:34:31.187Z,1031.46
2017-01-31T08:35:31.173Z,1031.44
2017-01-31T08:36:31.159Z,1031.45
2017-01-31T08:37:31.146Z,1031.42
2017-01-31T08:38:31.131Z,1031.41
2017-01-31T08:39:31.117Z,1031.37
2017-01-31T08:40:31.104Z,1031.34
2017-01-31T08:41:31.091Z,1031.3
2017-01-31T08:42:31.076Z,1031.23
2017-01-31T08:43:31.062Z,1031.22
2017-01-31T08:44:31.050Z,1031.22
2017-01-31T08:45:31.035Z,1031.21
2017-01-31T08:46:31.022Z,1031.22
2017-01-31T08:47:31.008Z,1031.24
2017-01-31T08:48:30.995Z,1031.22
2017-01-31T08:49:30.980Z,1031.16
2017-01-31T08:50:30.968Z,1031.19
2017-01-31T08:51:30.954Z,1031.17
2017-01-31T08:52:30.941Z,1031.14
2017-01-31T08:53:30.926Z,1031.09
2017-01-31T08:54:30.914Z,1031.07
2017-01-31T08:55:30.901Z,1031.02
2017-01-31T08:56:30.887Z,1031.07
2017-01-31T08:57:30.876Z,1031.03
2017-01-31T08:58:30.860Z,1031.09
2017-01-31T08:59:30.847Z,1031.1
2017-01-31T09:00:30.836Z,1031.22
2017-01-31T09:01:30.820Z,1031.31
2017-01-31T09:02:30.807Z,1031.37
2017-01-31T09:03:30.794Z,1031.43
2017-01-31T09:04:30.810Z,1031.48
2017-01-31T09:05:30.795Z,1031.46
2017-01-31T09:06:30.754Z,1031.49
2017-01-31T09:07:30.742Z,1031.55
2017-01-31T09:08:30.727Z,1031.53
2017-01-31T09:09:30.714Z,1031.53
2017-01-31T09:10:30.701Z,1031.53
2017-01-31T09:11:30.686Z,1031.51
2017-01-31T09:12:30.703Z,1031.45
2017-01-31T09:13:30.662Z,1031.48
2017-01-31T09:14:30.648Z,1031.44
2017-01-31T09:15:30.635Z,1031.43
2017-01-31T09:16:30.621Z,1031.46
2017-01-31T09:17:30.608Z,1031.44
2017-01-31T09:18:30.595Z,1031.41
2017-01-31T09:19:30.580Z,1031.45
2017-01-31T09:20:30.568Z,1031.42
2017-01-31T09:21:30.556Z,1031.43
2017-01-31T09:22:30.541Z,1031.42
2017-01-31T09:23:30.553Z,1031.46
2017-01-31T09:24:30.515Z,1031.44
2017-01-31T09:25:30.503Z,1031.44
2017-01-31T09:26:30.489Z,1031.41
2017-01-31T09:27:30.476Z,1031.37
2017-01-31T09:28:30.462Z,1031.28
2017-01-31T09:29:30.466Z,1031.27
2017-01-31T09:30:30.437Z,1031.22
2017-01-31T09:31:30.423Z,1031.22
2017-01-31T09:32:30.413Z,1031.22
2017-01-31T09:33:30.397Z,1031.19
2017-01-31T09:34:30.384Z,1031.17
2017-01-31T09:35:30.371Z,1031.13
2017-01-31T09:36:30.359Z,1031.15
2017-01-31T09:37:30.345Z,1031.1
2017-01-31T09:38:30.334Z,1031.08
2017-01-31T09:39:30.320Z,1031.06
2017-01-31T09:40:30.306Z,1030.99
2017-01-31T09:41:30.294Z,1030.96
2017-01-31T09:42:30.284Z,1030.95
2017-01-31T09:43:30.268Z,1030.92
2017-01-31T09:44:30.254Z,1030.91
2017-01-31T09:45:30.242Z,1030.92
2017-01-31T09:46:30.230Z,1030.88
2017-01-31T09:47:30.217Z,1030.91
2017-01-31T09:48:30.202Z,1030.94
2017-01-31T09:49:30.191Z,1030.93
2017-01-31T09:50:30.179Z,1030.88
2017-01-31T09:51:30.164Z,1030.81
2017-01-31T09:52:30.152Z,1030.76
2017-01-31T09:53:30.141Z,1030.73
2017-01-31T09:54:30.128Z,1030.69
2017-01-31T09:55:30.115Z,1030.67
2017-01-31T09:56:30.101Z,1030.69
2017-01-31T09:57:30.089Z,1030.77
2017-01-31T09:58:30.076Z,1030.78
2017-01-31T09:59:30.064Z,1030.8
2017-01-31T10:00:30.051Z,1030.76
2017-01-31T10:01:30.039Z,1030.77
2017-01-31T10:02:30.025Z,1030.75
2017-01-31T10:03:30.014Z,1030.7
2017-01-31T10:04:30.002Z,1030.69
2017-01-31T10:05:29.990Z,1030.7
2017-01-31T10:06:29.976Z,1030.7
2017-01-31T10:07:29.970Z,1030.72
2017-01-31T10:08:29.952Z,1030.74
2017-01-31T10:09:29.941Z,1030.82
2017-01-31T10:10:29.927Z,1030.83
2017-01-31T10:11:29.916Z,1030.87
2017-01-31T10:12:29.904Z,1030.89
2017-01-31T10:13:29.891Z,1030.91
2017-01-31T10:14:29.879Z,1030.94
2017-01-31T10:15:29.867Z,1030.97
2017-01-31T10:16:29.855Z,1030.99
2017-01-31T10:17:29.841Z,1031.03
2017-01-31T10:18:29.830Z,1031.11
2017-01-31T10:19:29.820Z,1031.14
2017-01-31T10:20:29.807Z,1031.19
2017-01-31T10:21:29.793Z,1031.16
2017-01-31T10:22:29.781Z,1031.2
2017-01-31T10:23:29.769Z,1031.21
2017-01-31T10:24:29.755Z,1031.23
2017-01-31T10:25:29.743Z,1031.28
2017-01-31T10:26:29.730Z,1031.27
2017-01-31T10:27:29.720Z,1031.33
2017-01-31T10:28:29.706Z,1031.39
2017-01-31T10:29:29.694Z,1031.4
2017-01-31T10:30:29.682Z,1031.39
2017-01-31T10:31:29.669Z,1031.35
2017-01-31T10:32:29.656Z,1031.38
2017-01-31T10:33:29.644Z,1031.42
2017-01-31T10:34:29.631Z,1031.42
2017-01-31T10:35:29.619Z,1031.44
2017-01-31T10:36:29.607Z,1031.51
2017-01-31T10:37:29.595Z,1031.61
2017-01-31T10:38:29.582Z,1031.77
2017-01-31T10:39:29.569Z,1031.85
2017-01-31T10:40:29.558Z,1031.9
2017-01-31T10:41:29.545Z,1031.92
2017-01-31T10:42:29.533Z,1031.91
2017-01-31T10:43:29.519Z,1031.95
2017-01-31T10:44:29.514Z,1032
2017-01-31T10:45:29.495Z,1032.08
2017-01-31T10:46:29.482Z,1032.14
2017-01-31T10:47:29.469Z,1032.17
2017-01-31T10:48:29.456Z,1032.2
2017-01-31T10:49:29.444Z,1032.16
2017-01-31T10:50:29.432Z,1032.2
2017-01-31T10:51:29.417Z,1032.28
2017-01-31T10:52:29.405Z,1032.29
2017-01-31T10:53:29.393Z,1032.31
2017-01-31T10:54:29.383Z,1032.28
2017-01-31T10:55:29.367Z,1032.37
2017-01-31T10:56:29.354Z,1032.34
2017-01-31T10:57:29.341Z,1032.34
2017-01-31T10:58:29.327Z,1032.37
2017-01-31T10:59:29.314Z,1032.31
2017-01-31T11:00:29.301Z,1032.26
2017-01-31T11:01:29.290Z,1032.28
2017-01-31T11:02:29.275Z,1032.27
2017-01-31T11:03:29.262Z,1032.21
2017-01-31T11:04:29.248Z,1032.25
2017-01-31T11:05:29.236Z,1032.21
2017-01-31T11:06:29.223Z,1032.14
2017-01-31T11:07:29.210Z,1032.07
2017-01-31T11:08:29.196Z,1032
2017-01-31T11:09:29.183Z,1031.8
2017-01-31T11:10:29.171Z,1031.67
2017-01-31T11:11:29.158Z,1031.52
2017-01-31T11:12:29.144Z,1031.36
2017-01-31T11:13:29.132Z,1031.12
2017-01-31T11:14:29.118Z,1030.88
2017-01-31T11:15:29.105Z,1030.62
2017-01-31T11:16:29.093Z,1030.42
2017-01-31T11:17:29.080Z,1030.23
2017-01-31T11:18:29.067Z,1030.12
2017-01-31T11:19:29.055Z,1030
2017-01-31T11:20:29.043Z,1030.04
2017-01-31T11:21:29.033Z,1030.01
2017-01-31T11:22:29.020Z,1030.06
2017-01-31T11:23:29.006Z,1030.07
2017-01-31T11:24:28.995Z,1030.13
2017-01-31T11:25:28.984Z,1030.19
2017-01-31T11:26:28.971Z,1030.24
2017-01-31T11:27:28.959Z,1030.31
2017-01-31T11:28:28.947Z,1030.39
2017-01-31T11:29:28.943Z,1030.44
2017-01-31T11:30:28.925Z,1030.44
2017-01-31T11:31:28.913Z,1030.5
2017-01-31T11:32:28.903Z,1030.52
2017-01-31T11:33:28.891Z,1030.55
2017-01-31T11:34:28.879Z,1030.54
2017-01-31T11:35:28.868Z,1030.52
2017-01-31T11:36:28.856Z,1030.47
2017-01-31T11:37:28.844Z,1030.51
2017-01-31T11:38:28.833Z,1030.62
2017-01-31T11:39:28.822Z,1030.64
2017-01-31T11:40:28.813Z,1030.66
2017-01-31T11:41:28.799Z,1030.69
2017-01-31T11:42:28.788Z,1030.74
2017-01-31T11:43:28.777Z,1030.72
2017-01-31T11:44:28.767Z,1030.66
2017-01-31T11:45:28.754Z,1030.67
2017-01-31T11:46:28.743Z,1030.68
2017-01-31T11:47:28.732Z,1030.7
2017-01-31T11:48:28.720Z,1030.68
2017-01-31T11:49:28.709Z,1030.74
2017-01-31T11:50:28.698Z,1030.74
2017-01-31T11:51:28.687Z,1030.81
2017-01-31T11:52:28.674Z,1030.84
2017-01-31T11:53:28.664Z,1030.89
2017-01-31T11:54:28.652Z,1030.93
2017-01-31T11:55:28.641Z,1030.96
2017-01-31T11:56:28.629Z,1031.03
2017-01-31T11:57:28.618Z,1031.06
2017-01-31T11:58:28.612Z,1031.08
2017-01-31T11:59:28.595Z,1031.06
2017-01-31T12:00:28.582Z,1031.04
2017-01-31T12:01:28.572Z,1031
2017-01-31T12:02:28.561Z,1031.01
2017-01-31T12:03:28.550Z,1031.01
2017-01-31T12:04:28.539Z,1031.12
2017-01-31T12:05:28.527Z,1031.14
2017-01-31T12:06:28.516Z,1031.24
2017-01-31T12:07:28.503Z,1031.26
2017-01-31T12:08:28.492Z,1031.33